Time;durP1;ratioP1;P1;durP2;ratioP2;P2;SDS_P1;SDS_P2;PMS_P1;PMS_P2;Temp;Humidity;BMP_temperature;BMP_pressure;BME280_temperature;BME280_humidity;BME280_pressure;Samples;Min_cycle;Max_cycle;Signal;HPM_P1;HPM_P2
2022/06/21 00:02:30;;;;;;;;;;;13.90;1.00;;;;;;10206272;28;84299;-61
2022/06/21 00:07:31;;;;;;;;;;;13.90;1.00;;;;;;10217846;28;85544;-63
2022/06/21 00:12:31;;;;;;;;;;;13.80;1.00;;;;;;10209383;28;84790;-63
2022/06/21 00:17:32;;;;;;;;;;;13.80;1.00;;;;;;10209229;28;84117;-63
2022/06/21 00:22:32;;;;;;;;;;;13.70;1.00;;;;;;10202484;28;84197;-63
2022/06/21 00:27:33;;;;;;;;;;;13.70;1.00;;;;;;10206349;28;84251;-63
2022/06/21 00:32:34;;;;;;;;;;;13.70;1.00;;;;;;10242753;22;84351;-49
2022/06/21 00:37:34;;;;;;;;;;;13.70;1.00;;;;;;10248781;28;85085;-52
2022/06/21 00:42:36;;;;;;;;;;;13.60;1.00;;;;;;10247726;28;84379;-47
2022/06/21 00:48:06;;;;;;;;;;;13.60;1.00;;;;;;10250730;28;85003;-47
2022/06/21 00:53:26;;;;;;;;;;;13.60;1.00;;;;;;10160719;28;84115;-52
2022/06/21 00:58:27;;;;;;;;;;;13.50;1.00;;;;;;10180845;28;85308;-46
2022/06/21 01:03:30;;;;;;;;;;;13.50;1.00;;;;;;10209959;28;84190;-51
2022/06/21 01:08:33;;;;;;;;;;;13.50;1.00;;;;;;10204730;28;84768;-51
2022/06/21 01:13:37;;;;;;;;;;;13.50;1.00;;;;;;10190001;28;84160;-50
2022/06/21 01:18:38;;;;;;;;;;;13.50;1.00;;;;;;10209061;28;84662;-49
2022/06/21 01:23:51;;;;;;;;;;;13.40;1.00;;;;;;10209267;28;84022;-50
2022/06/21 01:28:52;;;;;;;;;;;13.40;1.00;;;;;;10218407;28;86823;-49
2022/06/21 01:33:53;;;;;;;;;;;13.40;1.00;;;;;;10208613;28;85152;-52
2022/06/21 01:38:53;;;;;;;;;;;13.30;1.00;;;;;;10220064;28;84141;-52
2022/06/21 01:43:55;;;;;;;;;;;13.30;1.00;;;;;;10207644;28;84348;-51
2022/06/21 01:49:00;;;;;;;;;;;13.30;1.00;;;;;;10201365;28;84813;-51
2022/06/21 01:54:02;;;;;;;;;;;13.30;1.00;;;;;;10168591;28;84931;-53
2022/06/21 01:59:06;;;;;;;;;;;13.20;1.00;;;;;;10184929;28;85076;-48
2022/06/21 02:04:07;;;;;;;;;;;13.10;1.00;;;;;;10205202;28;84023;-48
2022/06/21 02:09:12;;;;;;;;;;;13.00;1.00;;;;;;10199203;28;84330;-48
2022/06/21 02:14:29;;;;;;;;;;;13.00;1.00;;;;;;10168997;28;84306;-49
2022/06/21 02:19:38;;;;;;;;;;;12.90;1.00;;;;;;10179340;28;85214;-51
2022/06/21 02:24:38;;;;;;;;;;;12.90;1.00;;;;;;10206203;28;86744;-51
2022/06/21 02:29:41;;;;;;;;;;;12.90;1.00;;;;;;10195189;28;84646;-53
2022/06/21 02:34:42;;;;;;;;;;;13.00;1.00;;;;;;10167490;28;84944;-52
2022/06/21 02:39:43;;;;;;;;;;;13.00;1.00;;;;;;10179241;28;84971;-54
2022/06/21 02:44:47;;;;;;;;;;;12.90;1.00;;;;;;10207669;28;84104;-48
2022/06/21 02:49:51;;;;;;;;;;;12.80;1.00;;;;;;10205740;28;84182;-50
2022/06/21 02:55:12;;;;;;;;;;;12.80;1.00;;;;;;10207237;28;84139;-47
2022/06/21 03:00:15;;;;;;;;;;;12.70;1.00;;;;;;10172034;28;84904;-49
2022/06/21 03:05:18;;;;;;;;;;;12.70;1.00;;;;;;10197898;28;87197;-47
2022/06/21 03:10:21;;;;;;;;;;;12.70;1.00;;;;;;10182390;28;84923;-46
2022/06/21 03:15:22;;;;;;;;;;;12.70;1.00;;;;;;10231979;28;84147;-48
2022/06/21 03:20:22;;;;;;;;;;;12.70;4.00;;;;;;10224272;28;84289;-49
2022/06/21 03:25:35;;;;;;;;;;;12.70;1.00;;;;;;10230929;28;84956;-48
2022/06/21 03:30:36;;;;;;;;;;;12.70;1.00;;;;;;10203959;28;84845;-52
2022/06/21 03:35:36;;;;;;;;;;;12.70;11.30;;;;;;10165218;28;84953;-52
2022/06/21 03:45:59;;;;;;;;;;;12.70;1.00;;;;;;10236404;28;85612;-52
2022/06/21 03:51:11;;;;;;;;;;;12.60;16.50;;;;;;10181795;28;84064;-49
2022/06/21 03:56:15;;;;;;;;;;;12.60;14.90;;;;;;10165418;28;85160;-48
2022/06/21 04:01:18;;;;;;;;;;;12.70;1.00;;;;;;10197817;28;84160;-50
2022/06/21 04:06:22;;;;;;;;;;;12.70;10.80;;;;;;10206625;28;85338;-52
2022/06/21 04:11:25;;;;;;;;;;;12.70;25.00;;;;;;10194249;28;85406;-50
2022/06/21 04:16:26;;;;;;;;;;;12.70;23.10;;;;;;10210625;28;84520;-53
2022/06/21 04:21:31;;;;;;;;;;;12.70;21.00;;;;;;10208114;28;84985;-52
2022/06/21 04:26:35;;;;;;;;;;;12.80;15.80;;;;;;10209919;28;84872;-48
2022/06/21 04:31:41;;;;;;;;;;;12.80;1.00;;;;;;10204642;28;85954;-52
2022/06/21 04:36:52;;;;;;;;;;;12.80;1.00;;;;;;10207752;28;85011;-51
2022/06/21 04:41:56;;;;;;;;;;;12.90;1.00;;;;;;10202857;28;84810;-49
2022/06/21 04:46:57;;;;;;;;;;;12.90;1.00;;;;;;10208279;28;85117;-51
2022/06/21 04:52:07;;;;;;;;;;;12.90;1.00;;;;;;10207214;28;84853;-53
2022/06/21 04:57:08;;;;;;;;;;;12.90;6.40;;;;;;10237674;28;87079;-49
2022/06/21 05:02:17;;;;;;;;;;;13.10;1.00;;;;;;10207062;28;84311;-48
2022/06/21 05:07:19;;;;;;;;;;;13.10;1.00;;;;;;10208418;28;85050;-49
2022/06/21 05:12:23;;;;;;;;;;;13.10;1.00;;;;;;10204662;28;85433;-52
2022/06/21 05:17:24;;;;;;;;;;;13.30;1.00;;;;;;10204683;28;84954;-51
2022/06/21 05:22:30;;;;;;;;;;;13.50;1.00;;;;;;10207306;28;85412;-53
2022/06/21 05:27:33;;;;;;;;;;;13.60;1.00;;;;;;10207957;28;84938;-51
2022/06/21 05:32:39;;;;;;;;;;;13.70;1.00;;;;;;10205730;28;84441;-52
2022/06/21 05:37:48;;;;;;;;;;;13.90;1.00;;;;;;10208305;28;84040;-49
2022/06/21 05:42:50;;;;;;;;;;;14.00;1.00;;;;;;10191992;28;85714;-48
2022/06/21 05:47:53;;;;;;;;;;;14.30;1.00;;;;;;10168368;28;84187;-49
2022/06/21 05:52:55;;;;;;;;;;;14.40;1.00;;;;;;10181364;28;84215;-48
2022/06/21 05:58:01;;;;;;;;;;;14.40;1.00;;;;;;10205266;28;84316;-51
2022/06/21 06:03:10;;;;;;;;;;;14.60;1.00;;;;;;10221056;28;86978;-49
2022/06/21 06:08:13;;;;;;;;;;;14.80;1.00;;;;;;10201483;28;84846;-53
2022/06/21 06:13:16;;;;;;;;;;;14.80;1.00;;;;;;10200702;28;84544;-47
2022/06/21 06:18:17;;;;;;;;;;;15.10;1.00;;;;;;10202896;28;85016;-53
2022/06/21 06:23:36;;;;;;;;;;;15.10;1.00;;;;;;10196240;28;85039;-52
2022/06/21 06:28:44;;;;;;;;;;;15.30;1.00;;;;;;10203485;28;86706;-49
2022/06/21 06:33:57;;;;;;;;;;;15.50;1.00;;;;;;10236072;22;84457;-60
2022/06/21 06:38:58;;;;;;;;;;;15.60;1.00;;;;;;10238861;28;84242;-58
2022/06/21 06:44:01;;;;;;;;;;;15.90;1.00;;;;;;10214748;28;84994;-56
2022/06/21 06:49:15;;;;;;;;;;;16.10;1.00;;;;;;10216908;28;84959;-58
2022/06/21 06:54:28;;;;;;;;;;;16.30;1.00;;;;;;10193255;28;84410;-58
2022/06/21 06:59:28;;;;;;;;;;;16.20;1.00;;;;;;10208728;28;84397;-57
2022/06/21 07:04:33;;;;;;;;;;;16.50;1.00;;;;;;10206917;28;84081;-58
2022/06/21 07:09:38;;;;;;;;;;;16.80;99.90;;;;;;10209585;28;84074;-59
2022/06/21 07:14:39;;;;;;;;;;;17.20;1.00;;;;;;10221164;28;84364;-56
2022/06/21 07:19:40;;;;;;;;;;;17.40;97.80;;;;;;10212012;28;84029;-59
2022/06/21 07:24:42;;;;;;;;;;;17.70;1.00;;;;;;10207841;28;86069;-58
2022/06/21 07:29:50;;;;;;;;;;;17.90;1.00;;;;;;10212038;28;85209;-57
2022/06/21 07:34:55;;;;;;;;;;;18.10;99.90;;;;;;10211476;28;84700;-58
2022/06/21 07:39:55;;;;;;;;;;;18.50;1.00;;;;;;10211224;28;84873;-61
2022/06/21 07:45:02;;;;;;;;;;;19.00;1.00;;;;;;10216284;28;84925;-62
2022/06/21 07:50:05;;;;;;;;;;;19.70;99.90;;;;;;10214801;28;84011;-61
2022/06/21 07:55:28;;;;;;;;;;;20.10;99.90;;;;;;10215636;28;84138;-61
2022/06/21 08:06:41;;;;;;;;;;;20.40;1.00;;;;;;10214999;28;84195;-61
2022/06/21 08:11:20;;;;;;;;;;;21.10;99.90;;;;;;10211203;28;85879;-59
2022/06/21 08:16:33;;;;;;;;;;;22.00;1.00;;;;;;10213714;28;84075;-62
2022/06/21 08:21:57;;;;;;;;;;;22.40;1.00;;;;;;10214596;28;84260;-57
2022/06/21 08:27:24;;;;;;;;;;;22.40;99.90;;;;;;10203457;28;84842;-61
2022/06/21 08:32:38;;;;;;;;;;;22.50;1.00;;;;;;10174930;28;86085;-59
2022/06/21 08:37:44;;;;;;;;;;;22.80;99.90;;;;;;10214252;28;84240;-60
2022/06/21 08:42:48;;;;;;;;;;;22.80;44.20;;;;;;10212485;28;87075;-62
2022/06/21 08:48:07;;;;;;;;;;;23.20;1.00;;;;;;10213787;28;85276;-57
2022/06/21 08:53:23;;;;;;;;;;;24.00;1.00;;;;;;10212247;28;84144;-58
2022/06/21 08:58:32;;;;;;;;;;;24.40;99.90;;;;;;10214322;28;84328;-56
2022/06/21 09:03:35;;;;;;;;;;;25.00;99.90;;;;;;10213300;28;84286;-57
2022/06/21 09:08:40;;;;;;;;;;;25.20;99.90;;;;;;10212421;28;84083;-60
2022/06/21 09:14:10;;;;;;;;;;;25.40;88.00;;;;;;10211203;28;84988;-61
2022/06/21 09:19:13;;;;;;;;;;;25.90;1.00;;;;;;10111784;28;86017;-59
2022/06/21 09:24:32;;;;;;;;;;;26.40;1.00;;;;;;10214902;28;84032;-61
2022/06/21 09:29:36;;;;;;;;;;;27.20;1.00;;;;;;10213202;28;84945;-60
2022/06/21 09:34:45;;;;;;;;;;;27.30;1.00;;;;;;10211864;28;84795;-62
2022/06/21 09:39:46;;;;;;;;;;;27.80;1.00;;;;;;10212988;28;84208;-56
2022/06/21 09:45:07;;;;;;;;;;;28.00;1.00;;;;;;10211384;28;86673;-61
2022/06/21 09:50:20;;;;;;;;;;;27.40;1.00;;;;;;10170766;28;84878;-61
2022/06/21 09:55:21;;;;;;;;;;;27.60;1.00;;;;;;10210463;28;84996;-60
2022/06/21 10:00:34;;;;;;;;;;;28.00;1.00;;;;;;10211712;28;84705;-61
2022/06/21 10:05:35;;;;;;;;;;;28.50;1.00;;;;;;10212058;28;84152;-59
2022/06/21 10:10:54;;;;;;;;;;;29.20;1.00;;;;;;10213969;28;84247;-61
2022/06/21 10:16:13;;;;;;;;;;;29.30;1.00;;;;;;10213975;28;84020;-61
2022/06/21 10:21:23;;;;;;;;;;;29.70;1.00;;;;;;10228067;28;85962;-59
2022/06/21 10:26:32;;;;;;;;;;;29.30;1.00;;;;;;10213240;28;85106;-59
2022/06/21 10:31:52;;;;;;;;;;;29.40;1.00;;;;;;10212472;28;84773;-61
2022/06/21 10:36:53;;;;;;;;;;;30.10;1.00;;;;;;10212463;28;85729;-61
2022/06/21 10:47:39;;;;;;;;;;;28.90;1.00;;;;;;10213035;28;84255;-59
2022/06/21 10:52:48;;;;;;;;;;;29.40;1.00;;;;;;10199547;28;85159;-59
2022/06/21 10:58:08;;;;;;;;;;;28.00;1.00;;;;;;10211220;28;85116;-62
2022/06/21 11:03:14;;;;;;;;;;;27.90;1.00;;;;;;10208974;28;84747;-62
2022/06/21 11:08:22;;;;;;;;;;;28.30;1.00;;;;;;10207888;28;84967;-61
2022/06/21 11:13:28;;;;;;;;;;;28.40;1.00;;;;;;10207219;28;84961;-58
2022/06/21 11:18:28;;;;;;;;;;;28.10;1.00;;;;;;10214286;28;84783;-61
2022/06/21 11:23:31;;;;;;;;;;;28.00;1.00;;;;;;10213430;28;85063;-60
2022/06/21 11:28:58;;;;;;;;;;;27.40;1.00;;;;;;10213781;28;84795;-61
2022/06/21 11:34:22;;;;;;;;;;;26.80;1.00;;;;;;10185106;28;84811;-59
2022/06/21 11:39:28;;;;;;;;;;;27.40;1.00;;;;;;10182498;28;84194;-60
2022/06/21 11:44:44;;;;;;;;;;;28.10;1.00;;;;;;10215986;28;85047;-61
2022/06/21 11:49:57;;;;;;;;;;;29.30;1.00;;;;;;10216378;28;85160;-61
2022/06/21 11:55:00;;;;;;;;;;;29.70;1.00;;;;;;10217473;28;85040;-61
2022/06/21 12:00:05;;;;;;;;;;;30.40;1.00;;;;;;10218343;28;84130;-61
2022/06/21 12:05:20;;;;;;;;;;;29.90;1.00;;;;;;10218050;28;84164;-62
2022/06/21 12:10:26;;;;;;;;;;;29.80;1.00;;;;;;10216059;28;85108;-62
2022/06/21 12:15:44;;;;;;;;;;;29.10;1.00;;;;;;10215861;28;85044;-62
2022/06/21 12:21:04;;;;;;;;;;;28.40;1.00;;;;;;10219227;28;84944;-59
2022/06/21 12:26:05;;;;;;;;;;;27.60;1.00;;;;;;10217853;28;84295;-60
2022/06/21 12:31:13;;;;;;;;;;;27.20;1.00;;;;;;10248836;22;84755;-51
2022/06/21 12:36:22;;;;;;;;;;;27.90;1.00;;;;;;10208366;28;84146;-54
2022/06/21 12:41:34;;;;;;;;;;;27.80;1.00;;;;;;10210621;28;85033;-55
2022/06/21 12:46:39;;;;;;;;;;;27.70;1.00;;;;;;10210736;28;84857;-53
2022/06/21 12:51:56;;;;;;;;;;;27.80;1.00;;;;;;10209508;28;84444;-53
2022/06/21 12:57:16;;;;;;;;;;;28.30;1.00;;;;;;10210031;28;84010;-50
2022/06/21 13:02:22;;;;;;;;;;;29.50;1.00;;;;;;10209182;28;84951;-49
2022/06/21 13:07:44;;;;;;;;;;;30.00;1.00;;;;;;10208029;28;84182;-53
2022/06/21 13:13:03;;;;;;;;;;;29.70;1.00;;;;;;10209390;28;84125;-54
2022/06/21 13:18:16;;;;;;;;;;;30.50;1.00;;;;;;10208801;28;85036;-53
2022/06/21 13:23:20;;;;;;;;;;;30.10;1.00;;;;;;10209180;28;83949;-53
2022/06/21 13:28:38;;;;;;;;;;;29.30;1.00;;;;;;10208586;28;85010;-54
2022/06/21 13:33:54;;;;;;;;;;;28.90;1.00;;;;;;10207932;28;84042;-52
2022/06/21 13:38:54;;;;;;;;;;;28.00;1.00;;;;;;10208274;28;84288;-50
2022/06/21 13:43:55;;;;;;;;;;;27.00;1.00;;;;;;10201113;28;84480;-48
2022/06/21 13:48:59;;;;;;;;;;;26.40;1.00;;;;;;10206674;28;84119;-51
2022/06/21 13:54:03;;;;;;;;;;;26.00;1.00;;;;;;10220683;28;84989;-53
2022/06/21 13:59:21;;;;;;;;;;;26.30;1.00;;;;;;10208891;28;85336;-52
2022/06/21 14:04:31;;;;;;;;;;;26.60;1.00;;;;;;10208358;28;85160;-49
2022/06/21 14:09:43;;;;;;;;;;;26.30;1.00;;;;;;10207969;28;84155;-52
2022/06/21 14:14:53;;;;;;;;;;;26.40;1.00;;;;;;10208146;28;86773;-48
2022/06/21 14:20:03;;;;;;;;;;;26.20;1.00;;;;;;10207580;28;84163;-49
2022/06/21 14:25:11;;;;;;;;;;;26.30;1.00;;;;;;10206644;28;84077;-49
2022/06/21 14:30:17;;;;;;;;;;;26.40;1.00;;;;;;10207038;28;84910;-47
2022/06/21 14:35:27;;;;;;;;;;;26.60;1.00;;;;;;10204922;28;85012;-51
2022/06/21 14:40:34;;;;;;;;;;;26.50;1.00;;;;;;10207361;28;84290;-49
2022/06/21 14:45:37;;;;;;;;;;;26.50;1.00;;;;;;10206507;28;85121;-53
2022/06/21 14:50:45;;;;;;;;;;;26.20;1.00;;;;;;10206993;28;83995;-53
2022/06/21 14:56:00;;;;;;;;;;;25.50;1.00;;;;;;10207145;28;85017;-49
2022/06/21 15:01:21;;;;;;;;;;;25.50;1.00;;;;;;10206384;28;84807;-54
2022/06/21 15:06:29;;;;;;;;;;;25.70;1.00;;;;;;10206294;28;84118;-51
2022/06/21 15:11:52;;;;;;;;;;;25.70;1.00;;;;;;10206664;28;84168;-52
2022/06/21 15:17:02;;;;;;;;;;;25.60;1.00;;;;;;10206104;28;84786;-49
2022/06/21 15:22:15;;;;;;;;;;;25.50;1.00;;;;;;10207146;28;84105;-49
2022/06/21 15:27:22;;;;;;;;;;;25.20;1.00;;;;;;10205913;28;84139;-51
2022/06/21 15:32:43;;;;;;;;;;;25.30;1.00;;;;;;10205294;28;84193;-52
2022/06/21 15:37:43;;;;;;;;;;;24.80;1.00;;;;;;10205309;28;85009;-52
2022/06/21 15:42:56;;;;;;;;;;;24.70;1.00;;;;;;10205519;28;84290;-49
2022/06/21 15:53:31;;;;;;;;;;;24.80;1.00;;;;;;10204941;28;84523;-50
2022/06/21 15:58:47;;;;;;;;;;;24.70;1.00;;;;;;10203331;28;85784;-52
2022/06/21 16:04:13;;;;;;;;;;;24.60;1.00;;;;;;10208659;28;84736;-50
2022/06/21 16:09:18;;;;;;;;;;;24.40;1.00;;;;;;10211615;28;84991;-50
2022/06/21 16:14:25;;;;;;;;;;;24.30;1.00;;;;;;10208924;28;84126;-53
2022/06/21 16:19:26;;;;;;;;;;;24.30;1.00;;;;;;10209835;28;87078;-49
2022/06/21 16:24:45;;;;;;;;;;;24.20;1.00;;;;;;10210630;28;84215;-49
2022/06/21 16:29:58;;;;;;;;;;;23.90;1.00;;;;;;10210852;28;84069;-53
2022/06/21 16:34:58;;;;;;;;;;;24.00;1.00;;;;;;10211270;28;84881;-52
2022/06/21 16:40:05;;;;;;;;;;;24.00;1.00;;;;;;10212625;28;84902;-51
2022/06/21 16:45:06;;;;;;;;;;;23.90;1.00;;;;;;10211464;28;85387;-53
2022/06/21 16:50:25;;;;;;;;;;;24.00;1.00;;;;;;10211305;28;84739;-49
2022/06/21 16:55:26;;;;;;;;;;;24.20;1.00;;;;;;10211782;28;85127;-51
2022/06/21 17:00:30;;;;;;;;;;;24.20;1.00;;;;;;10209408;28;84076;-53
2022/06/21 17:05:36;;;;;;;;;;;24.10;1.00;;;;;;10211621;28;84116;-54
2022/06/21 17:16:15;;;;;;;;;;;24.20;1.00;;;;;;10212466;28;84014;-52
2022/06/21 17:21:36;;;;;;;;;;;24.20;1.00;;;;;;10212492;28;84988;-52
2022/06/21 17:26:40;;;;;;;;;;;24.20;1.00;;;;;;10209340;28;84120;-53
2022/06/21 17:31:41;;;;;;;;;;;24.10;1.00;;;;;;10209740;28;84807;-53
2022/06/21 17:36:52;;;;;;;;;;;24.20;1.00;;;;;;10209603;28;84878;-50
2022/06/21 17:41:53;;;;;;;;;;;24.00;1.00;;;;;;10208613;28;84745;-51
2022/06/21 17:46:57;;;;;;;;;;;24.00;1.00;;;;;;10208158;28;85995;-52
2022/06/21 17:52:00;;;;;;;;;;;24.00;1.00;;;;;;10207418;28;84987;-52
2022/06/21 17:57:10;;;;;;;;;;;24.00;1.00;;;;;;10208827;28;84850;-52
2022/06/21 18:02:16;;;;;;;;;;;23.90;1.00;;;;;;10207713;28;84969;-53
2022/06/21 18:07:22;;;;;;;;;;;23.50;1.00;;;;;;10208178;28;85096;-54
2022/06/21 18:12:29;;;;;;;;;;;23.30;1.00;;;;;;10209063;28;84281;-52
2022/06/21 18:17:48;;;;;;;;;;;23.30;1.00;;;;;;10208577;28;85857;-50
2022/06/21 18:22:57;;;;;;;;;;;23.20;1.00;;;;;;10207831;28;84131;-51
2022/06/21 18:28:18;;;;;;;;;;;23.30;1.00;;;;;;10207203;28;84057;-51
2022/06/21 18:33:18;;;;;;;;;;;23.30;1.00;;;;;;10237100;22;84722;-59
2022/06/21 18:38:19;;;;;;;;;;;23.20;1.00;;;;;;10245091;28;84039;-59
2022/06/21 18:43:38;;;;;;;;;;;23.10;1.00;;;;;;10233067;28;84133;-52
2022/06/21 18:48:51;;;;;;;;;;;23.10;1.00;;;;;;10240657;28;86665;-58
2022/06/21 18:54:03;;;;;;;;;;;23.00;1.00;;;;;;10240469;28;84870;-59
2022/06/21 18:59:23;;;;;;;;;;;22.90;1.00;;;;;;10237736;28;84301;-57
2022/06/21 19:04:26;;;;;;;;;;;22.90;1.00;;;;;;10241607;28;84331;-58
2022/06/21 19:09:42;;;;;;;;;;;22.80;1.00;;;;;;10272233;28;84955;-56
2022/06/21 19:15:09;;;;;;;;;;;22.60;1.00;;;;;;10258862;28;84302;-65
2022/06/21 19:20:17;;;;;;;;;;;22.60;1.00;;;;;;10251486;28;86407;-63
2022/06/21 19:25:30;;;;;;;;;;;22.50;1.00;;;;;;10250697;28;84881;-64
2022/06/21 19:30:35;;;;;;;;;;;22.40;1.00;;;;;;10271040;28;86188;-64
2022/06/21 19:35:54;;;;;;;;;;;22.20;1.00;;;;;;10249452;28;84221;-63
2022/06/21 19:40:56;;;;;;;;;;;22.10;1.00;;;;;;10252797;28;84786;-64
2022/06/21 19:46:16;;;;;;;;;;;21.90;1.00;;;;;;10263167;28;84933;-63
2022/06/21 19:51:33;;;;;;;;;;;21.80;1.00;;;;;;10264601;28;84168;-61
2022/06/21 19:56:36;;;;;;;;;;;21.50;1.00;;;;;;10273175;28;84066;-62
2022/06/21 20:01:37;;;;;;;;;;;21.50;99.90;;;;;;10260104;28;84232;-58
2022/06/21 20:06:52;;;;;;;;;;;21.20;99.90;;;;;;10255610;28;84264;-58
2022/06/21 20:11:58;;;;;;;;;;;21.20;1.00;;;;;;10237952;28;84358;-57
2022/06/21 20:17:04;;;;;;;;;;;21.10;1.00;;;;;;10250031;28;84883;-62
2022/06/21 20:22:13;;;;;;;;;;;21.00;1.00;;;;;;10245548;28;84230;-59
2022/06/21 20:27:22;;;;;;;;;;;20.90;30.20;;;;;;10244784;28;85658;-61
2022/06/21 20:32:22;;;;;;;;;;;20.90;99.90;;;;;;10244958;28;84173;-60
2022/06/21 20:37:26;;;;;;;;;;;20.80;99.90;;;;;;10245045;28;84219;-61
2022/06/21 20:48:03;;;;;;;;;;;20.80;1.00;;;;;;10213910;28;84370;-62
2022/06/21 20:53:16;;;;;;;;;;;20.80;1.00;;;;;;10236316;28;84317;-62
2022/06/21 20:58:18;;;;;;;;;;;20.80;1.00;;;;;;10236577;28;84640;-61
2022/06/21 21:03:20;;;;;;;;;;;20.60;1.00;;;;;;10240643;28;84939;-60
2022/06/21 21:08:26;;;;;;;;;;;20.60;1.00;;;;;;10250260;28;84995;-60
2022/06/21 21:13:29;;;;;;;;;;;20.40;99.90;;;;;;10233696;28;84118;-60
2022/06/21 21:18:32;;;;;;;;;;;20.50;99.90;;;;;;10236935;28;84985;-60
2022/06/21 21:23:33;;;;;;;;;;;20.40;99.90;;;;;;10248187;28;84181;-61
2022/06/21 21:28:34;;;;;;;;;;;20.40;1.00;;;;;;10250146;28;84183;-61
2022/06/21 21:33:39;;;;;;;;;;;20.30;1.00;;;;;;10249057;28;84185;-60
2022/06/21 21:38:48;;;;;;;;;;;20.30;1.00;;;;;;10249125;28;84832;-61
2022/06/21 21:43:51;;;;;;;;;;;20.20;1.00;;;;;;10247834;28;84032;-61
2022/06/21 21:48:54;;;;;;;;;;;20.10;1.00;;;;;;10248975;28;84208;-59
2022/06/21 21:53:59;;;;;;;;;;;20.00;64.00;;;;;;10230577;28;85055;-59
2022/06/21 21:59:02;;;;;;;;;;;20.00;99.90;;;;;;10214695;28;84028;-60
2022/06/21 22:04:06;;;;;;;;;;;19.90;99.90;;;;;;10237200;28;84124;-61
2022/06/21 22:09:25;;;;;;;;;;;19.90;1.00;;;;;;10257802;28;84252;-61
2022/06/21 22:14:26;;;;;;;;;;;19.80;1.00;;;;;;10230703;28;84977;-61
2022/06/21 22:19:34;;;;;;;;;;;19.80;1.00;;;;;;10232299;28;84941;-61
2022/06/21 22:24:37;;;;;;;;;;;19.70;99.90;;;;;;10236229;28;84647;-61
2022/06/21 22:29:42;;;;;;;;;;;19.70;99.90;;;;;;10250849;28;84828;-59
2022/06/21 22:34:43;;;;;;;;;;;19.70;99.90;;;;;;10223782;28;84742;-61
2022/06/21 22:39:46;;;;;;;;;;;19.70;99.90;;;;;;10210563;28;84988;-61
2022/06/21 22:44:48;;;;;;;;;;;19.60;99.90;;;;;;10229697;28;85115;-60
2022/06/21 22:49:50;;;;;;;;;;;19.50;99.90;;;;;;10252248;28;84052;-60
2022/06/21 22:54:51;;;;;;;;;;;19.50;1.00;;;;;;10226860;28;84748;-59
2022/06/21 23:00:12;;;;;;;;;;;19.40;1.00;;;;;;10208565;28;86193;-59
2022/06/21 23:05:17;;;;;;;;;;;19.40;1.00;;;;;;10236021;28;84646;-59
2022/06/21 23:10:27;;;;;;;;;;;19.30;1.00;;;;;;10251013;28;84900;-61
2022/06/21 23:15:29;;;;;;;;;;;19.20;31.50;;;;;;10231815;28;85594;-63
2022/06/21 23:20:30;;;;;;;;;;;19.20;99.90;;;;;;10216728;28;85013;-59
2022/06/21 23:25:34;;;;;;;;;;;19.10;99.90;;;;;;10217043;28;84754;-61
2022/06/21 23:30:35;;;;;;;;;;;19.00;1.00;;;;;;10217930;28;84805;-61
2022/06/21 23:35:44;;;;;;;;;;;19.00;1.00;;;;;;10270945;28;84901;-62
2022/06/21 23:40:45;;;;;;;;;;;18.90;1.00;;;;;;10254738;28;84840;-62
2022/06/21 23:45:46;;;;;;;;;;;18.90;99.90;;;;;;10198712;28;86745;-59
2022/06/21 23:50:46;;;;;;;;;;;18.90;99.90;;;;;;10214814;28;84301;-60
2022/06/21 23:55:48;;;;;;;;;;;18.80;99.90;;;;;;10253188;28;85081;-61
